createdAt,value
2018-11-05T00:00:53.903Z,67.53
2018-11-05T00:03:21.315Z,63.50
2018-11-05T00:05:48.745Z,56.57
2018-11-05T00:08:16.145Z,75.90
2018-11-05T00:10:43.569Z,74.37
2018-11-05T00:13:10.961Z,70.43
2018-11-05T00:15:38.383Z,100.67
2018-11-05T00:18:05.786Z,110.17
2018-11-05T00:20:33.236Z,91.77
2018-11-05T00:23:00.638Z,95.60
2018-11-05T00:25:28.056Z,72.77
2018-11-05T00:27:55.464Z,75.77
2018-11-05T00:30:22.879Z,61.27
2018-11-05T00:32:50.271Z,84.77
2018-11-05T00:35:17.718Z,73.70
2018-11-05T00:37:45.157Z,70.17
2018-11-05T00:40:12.561Z,61.67
2018-11-05T00:42:39.997Z,63.83
2018-11-05T00:45:07.390Z,67.77
2018-11-05T00:47:34.789Z,97.43
2018-11-05T00:50:02.209Z,106.93
2018-11-05T00:52:29.635Z,90.90
2018-11-05T00:54:57.039Z,104.07
2018-11-05T00:57:24.436Z,71.53
2018-11-05T00:59:51.847Z,82.83
2018-11-05T01:02:19.251Z,86.27
2018-11-05T01:04:46.664Z,96.87
2018-11-05T01:07:14.091Z,89.47
2018-11-05T01:09:41.574Z,133.57
2018-11-05T01:12:08.977Z,121.40
2018-11-05T01:14:36.373Z,98.53
2018-11-05T01:17:03.795Z,80.90
2018-11-05T01:19:31.201Z,96.03
2018-11-05T01:21:59.501Z,117.47
2018-11-05T01:24:26.907Z,83.80
2018-11-05T01:26:54.291Z,93.40
2018-11-05T01:29:21.716Z,75.87
2018-11-05T01:31:49.132Z,82.60
2018-11-05T01:34:16.532Z,93.47
2018-11-05T01:36:43.944Z,85.37
2018-11-05T01:39:11.337Z,105.50
2018-11-05T01:41:38.757Z,82.27
2018-11-05T01:44:06.185Z,104.87
2018-11-05T01:46:33.587Z,134.37
2018-11-05T01:49:01.023Z,126.17
2018-11-05T01:51:28.476Z,111.30
2018-11-05T01:53:55.865Z,83.77
2018-11-05T01:56:23.261Z,97.33
2018-11-05T01:58:50.676Z,153.43
2018-11-05T02:01:18.099Z,82.33
2018-11-05T02:03:45.532Z,115.93
2018-11-05T02:06:12.926Z,96.50
2018-11-05T02:08:40.331Z,87.00
2018-11-05T02:11:07.760Z,83.60
2018-11-05T02:13:35.188Z,78.50
2018-11-05T02:16:02.699Z,72.77
2018-11-05T02:18:30.026Z,81.87
2018-11-05T02:20:57.450Z,66.80
2018-11-05T02:23:24.870Z,92.33
2018-11-05T02:25:52.290Z,90.67
2018-11-05T02:28:19.692Z,63.83
2018-11-05T02:30:47.103Z,68.00
2018-11-05T02:33:14.534Z,59.67
2018-11-05T02:35:41.932Z,56.77
2018-11-05T02:38:09.337Z,59.90
2018-11-05T02:40:36.752Z,54.63
2018-11-05T02:43:04.210Z,70.30
2018-11-05T02:45:31.599Z,72.80
2018-11-05T02:47:59.038Z,78.00
2018-11-05T02:50:26.453Z,82.87
2018-11-05T02:52:53.884Z,69.33
2018-11-05T02:55:21.280Z,65.70
2018-11-05T02:57:48.690Z,70.77
2018-11-05T03:00:16.079Z,69.30
2018-11-05T03:02:43.498Z,67.77
2018-11-05T03:05:10.939Z,67.27
2018-11-05T03:07:38.329Z,56.70
2018-11-05T03:10:05.738Z,84.97
2018-11-05T03:12:33.130Z,68.87
2018-11-05T03:15:00.568Z,59.97
2018-11-05T03:17:27.952Z,59.40
2018-11-05T03:19:55.385Z,56.70
2018-11-05T03:22:22.782Z,67.10
2018-11-05T03:24:50.216Z,90.17
2018-11-05T03:27:17.641Z,64.77
2018-11-05T03:29:45.029Z,129.43
2018-11-05T03:32:12.453Z,94.90
2018-11-05T03:34:39.851Z,120.37
2018-11-05T03:37:07.289Z,121.27
2018-11-05T03:39:34.703Z,90.97
2018-11-05T03:42:02.098Z,104.87
2018-11-05T03:44:29.521Z,110.77
2018-11-05T03:46:56.948Z,103.30
2018-11-05T03:49:24.372Z,76.20
2018-11-05T03:51:51.783Z,71.53
2018-11-05T03:54:19.209Z,82.90
2018-11-05T03:56:46.762Z,83.17
2018-11-05T03:59:14.061Z,79.70
2018-11-05T04:01:41.453Z,76.90
2018-11-05T04:04:08.908Z,73.73
2018-11-05T04:06:36.300Z,66.17
2018-11-05T04:09:03.707Z,73.37
2018-11-05T04:11:31.128Z,68.17
2018-11-05T04:13:58.526Z,64.93
2018-11-05T04:16:25.938Z,49.20
2018-11-05T04:18:53.341Z,59.57
2018-11-05T04:21:20.765Z,52.97
2018-11-05T04:23:48.160Z,70.77
2018-11-05T04:26:15.586Z,61.80
2018-11-05T04:28:43.002Z,82.93
2018-11-05T04:31:10.430Z,69.60
2018-11-05T04:33:37.854Z,65.03
2018-11-05T04:36:05.255Z,84.57
2018-11-05T04:38:32.684Z,73.77
2018-11-05T04:41:00.061Z,67.97
2018-11-05T04:43:27.492Z,66.07
2018-11-05T04:45:54.885Z,65.37
2018-11-05T04:48:22.289Z,71.73
2018-11-05T04:50:49.714Z,69.00
2018-11-05T04:53:17.151Z,68.90
2018-11-05T04:55:44.540Z,64.60
2018-11-05T04:58:11.982Z,77.13
2018-11-05T05:00:39.382Z,67.33
2018-11-05T05:03:06.839Z,66.27
2018-11-05T05:05:34.215Z,50.47
2018-11-05T05:08:01.600Z,54.23
2018-11-05T05:10:29.015Z,62.53
2018-11-05T05:12:56.416Z,83.53
2018-11-05T05:15:23.835Z,71.37
2018-11-05T05:17:51.253Z,69.33
2018-11-05T05:20:18.679Z,55.67
2018-11-05T05:22:46.216Z,54.63
2018-11-05T05:25:13.485Z,54.97
2018-11-05T05:27:40.895Z,60.43
2018-11-05T05:30:08.296Z,67.97
2018-11-05T05:32:35.721Z,58.73
2018-11-05T05:35:03.147Z,61.63
2018-11-05T05:37:30.682Z,55.23
2018-11-05T05:39:58.034Z,77.80
2018-11-05T05:42:25.450Z,69.07
2018-11-05T05:44:52.839Z,54.10
2018-11-05T05:47:20.258Z,60.47
2018-11-05T05:49:47.693Z,70.07
2018-11-05T05:52:15.181Z,58.40
2018-11-05T05:54:42.617Z,52.37
2018-11-05T05:57:10.009Z,51.27
2018-11-05T05:59:37.431Z,50.70
2018-11-05T06:02:04.832Z,67.87
2018-11-05T06:04:32.263Z,66.13
2018-11-05T06:06:59.677Z,54.80
2018-11-05T06:09:27.110Z,55.53
2018-11-05T06:11:54.505Z,63.37
2018-11-05T06:14:21.908Z,66.60
2018-11-05T06:16:49.344Z,63.07
2018-11-05T06:19:16.729Z,57.30
2018-11-05T06:21:44.207Z,52.40
2018-11-05T06:24:11.569Z,78.37
2018-11-05T06:26:39.001Z,64.80
2018-11-05T06:29:06.424Z,59.23
2018-11-05T06:31:33.852Z,67.93
2018-11-05T06:34:01.253Z,65.07
2018-11-05T06:36:28.663Z,69.13
2018-11-05T06:38:56.074Z,71.93
2018-11-05T06:41:23.583Z,75.87
2018-11-05T06:43:50.920Z,65.87
2018-11-05T06:46:18.356Z,62.93
2018-11-05T06:48:45.771Z,62.90
2018-11-05T06:51:13.186Z,76.73
2018-11-05T06:53:40.607Z,67.30
2018-11-05T06:56:08.003Z,90.07
2018-11-05T06:58:35.421Z,68.87
2018-11-05T07:01:02.853Z,78.73
2018-11-05T07:03:30.285Z,80.70
2018-11-05T07:05:57.770Z,90.43
2018-11-05T07:08:25.249Z,70.70
2018-11-05T07:10:52.655Z,63.37
2018-11-05T07:13:20.061Z,82.57
2018-11-05T07:15:47.481Z,79.43
2018-11-05T07:18:15.060Z,74.17
2018-11-05T07:20:42.356Z,81.50
2018-11-05T07:23:09.778Z,78.40
2018-11-05T07:25:37.190Z,62.80
2018-11-05T07:28:04.601Z,80.00
2018-11-05T07:30:32.001Z,90.83
2018-11-05T07:32:59.413Z,65.97
2018-11-05T07:35:26.837Z,69.90
2018-11-05T07:37:54.245Z,72.40
2018-11-05T07:40:21.731Z,80.70
2018-11-05T07:42:49.187Z,58.80
2018-11-05T07:45:16.595Z,59.23
2018-11-05T07:47:44.004Z,66.53
2018-11-05T07:50:11.477Z,73.23
2018-11-05T07:52:38.838Z,65.90
2018-11-05T07:55:06.280Z,64.60
2018-11-05T07:57:33.664Z,73.60
2018-11-05T08:00:01.061Z,60.73
2018-11-05T08:02:28.487Z,63.97
2018-11-05T08:04:55.922Z,62.53
2018-11-05T08:07:23.304Z,74.33
2018-11-05T08:09:50.735Z,62.67
2018-11-05T08:12:18.119Z,61.13
2018-11-05T08:14:45.521Z,56.80
2018-11-05T08:17:12.955Z,61.20
2018-11-05T08:19:40.382Z,62.80
2018-11-05T08:22:07.772Z,58.03
2018-11-05T08:24:35.194Z,66.77
2018-11-05T08:27:02.597Z,61.07
2018-11-05T08:29:30.012Z,59.03
2018-11-05T08:31:57.412Z,63.33
2018-11-05T08:34:24.930Z,66.03
2018-11-05T08:36:52.244Z,69.47
2018-11-05T08:39:20.781Z,64.13
2018-11-05T08:41:48.203Z,56.97
2018-11-05T08:44:15.633Z,59.77
2018-11-05T08:46:43.047Z,55.93
2018-11-05T08:49:10.453Z,58.70
2018-11-05T08:51:38.237Z,55.23
2018-11-05T08:54:05.398Z,60.67
2018-11-05T08:56:32.735Z,62.10
2018-11-05T08:59:00.166Z,63.43
2018-11-05T09:01:27.814Z,52.80
2018-11-05T09:03:55.233Z,71.37
2018-11-05T09:06:22.650Z,58.70
2018-11-05T09:08:50.056Z,62.33
2018-11-05T09:11:17.984Z,60.83
2018-11-05T09:13:44.974Z,63.63
2018-11-05T09:16:12.461Z,57.43
2018-11-05T09:18:39.798Z,58.83
2018-11-05T09:21:07.226Z,62.80
2018-11-05T09:23:34.623Z,52.47
2018-11-05T09:26:02.050Z,54.23
2018-11-05T09:28:29.459Z,59.03
2018-11-05T09:30:56.896Z,62.67
2018-11-05T09:33:24.286Z,57.23
2018-11-05T09:35:51.697Z,59.60
2018-11-05T09:38:19.110Z,60.23
2018-11-05T09:40:46.536Z,50.80
2018-11-05T09:43:13.939Z,49.37
2018-11-05T09:45:41.367Z,53.77
2018-11-05T09:48:08.787Z,45.90
2018-11-05T09:50:36.317Z,44.43
2018-11-05T09:53:03.633Z,40.70
2018-11-05T09:55:31.049Z,41.87
2018-11-05T09:57:58.494Z,38.53
2018-11-05T10:00:25.895Z,40.17
2018-11-05T10:02:53.419Z,36.43
2018-11-05T10:05:20.867Z,43.53
2018-11-05T10:07:49.089Z,37.40
2018-11-05T10:10:16.492Z,37.83
2018-11-05T10:12:43.868Z,40.07
2018-11-05T10:15:11.309Z,39.63
2018-11-05T10:17:38.712Z,41.93
2018-11-05T10:20:06.178Z,41.40
2018-11-05T10:22:33.595Z,37.27
2018-11-05T10:25:01.112Z,37.77
2018-11-05T10:27:28.415Z,40.03
2018-11-05T10:29:55.833Z,36.90
2018-11-05T10:32:23.233Z,33.83
2018-11-05T10:34:50.661Z,36.60
2018-11-05T10:37:18.079Z,36.53
2018-11-05T10:39:45.509Z,36.93
2018-11-05T10:42:12.942Z,39.33
2018-11-05T10:44:40.346Z,37.53
2018-11-05T10:47:07.852Z,35.00
2018-11-05T10:49:35.195Z,33.10
2018-11-05T10:52:02.797Z,35.07
2018-11-05T10:54:30.066Z,31.47
2018-11-05T10:56:57.525Z,31.93
2018-11-05T10:59:24.908Z,32.00
2018-11-05T11:01:52.345Z,30.17
2018-11-05T11:04:19.761Z,34.63
2018-11-05T11:06:47.169Z,32.37
2018-11-05T11:09:14.586Z,33.47
2018-11-05T11:11:41.989Z,33.83
2018-11-05T11:14:09.434Z,30.87
2018-11-05T11:16:36.834Z,30.80
2018-11-05T11:19:04.240Z,34.00
2018-11-05T11:21:31.699Z,38.13
2018-11-05T11:23:59.098Z,33.73
2018-11-05T11:26:26.524Z,28.43
2018-11-05T11:28:53.967Z,32.03
2018-11-05T11:31:21.369Z,31.03
2018-11-05T11:33:48.762Z,31.33
2018-11-05T11:36:16.183Z,34.70
2018-11-05T11:38:43.610Z,34.33
2018-11-05T11:41:11.063Z,35.80
2018-11-05T11:43:38.459Z,35.77
2018-11-05T11:46:05.930Z,35.50
2018-11-05T11:48:33.290Z,35.43
2018-11-05T11:51:00.702Z,36.00
2018-11-05T11:53:28.164Z,34.33
2018-11-05T11:55:55.586Z,34.17
2018-11-05T11:58:22.984Z,33.30
2018-11-05T12:00:50.422Z,34.93
2018-11-05T12:03:17.814Z,31.57
2018-11-05T12:05:45.238Z,32.30
2018-11-05T12:08:12.635Z,34.07
2018-11-05T12:10:40.067Z,32.83
2018-11-05T12:13:07.472Z,33.63
2018-11-05T12:15:34.902Z,34.43
2018-11-05T12:18:02.339Z,34.97
2018-11-05T12:20:29.779Z,35.20
2018-11-05T12:22:57.131Z,37.20
2018-11-05T12:25:24.594Z,34.07
2018-11-05T12:27:51.999Z,32.40
2018-11-05T12:30:19.406Z,33.30
2018-11-05T12:32:46.834Z,36.07
2018-11-05T12:35:14.246Z,30.90
2018-11-05T12:37:41.666Z,30.87
2018-11-05T12:40:09.099Z,34.43
2018-11-05T12:42:36.507Z,30.73
2018-11-05T12:45:03.999Z,32.30
2018-11-05T12:47:31.364Z,32.23
2018-11-05T12:49:58.793Z,35.67
2018-11-05T12:52:26.253Z,32.73
2018-11-05T12:54:53.697Z,32.03
2018-11-05T12:57:21.238Z,31.97
2018-11-05T12:59:48.660Z,36.10
2018-11-05T13:02:16.079Z,33.17
2018-11-05T13:04:43.516Z,33.30
2018-11-05T13:07:10.940Z,32.30
2018-11-05T13:09:38.352Z,34.17
2018-11-05T13:12:05.758Z,32.97
2018-11-05T13:14:33.186Z,32.07
2018-11-05T13:17:01.334Z,31.37
2018-11-05T13:19:28.828Z,30.33
2018-11-05T13:21:56.348Z,31.80
2018-11-05T13:24:23.750Z,33.10
2018-11-05T13:26:51.210Z,31.20
2018-11-05T13:29:18.591Z,33.53
2018-11-05T13:31:46.034Z,33.40
2018-11-05T13:34:13.476Z,32.40
2018-11-05T13:36:40.947Z,30.93
2018-11-05T13:39:08.276Z,35.50
2018-11-05T13:41:35.706Z,31.27
2018-11-05T13:44:03.100Z,33.80
2018-11-05T13:46:31.045Z,33.53
2018-11-05T13:48:58.376Z,32.67
2018-11-05T13:51:25.358Z,35.83
2018-11-05T13:53:52.783Z,30.90
2018-11-05T13:56:20.196Z,34.53
2018-11-05T13:58:47.617Z,33.23
2018-11-05T14:01:15.030Z,35.07
2018-11-05T14:03:42.479Z,35.33
2018-11-05T14:06:10.058Z,32.10
2018-11-05T14:08:37.521Z,36.07
2018-11-05T14:11:04.886Z,35.43
2018-11-05T14:13:32.308Z,37.60
2018-11-05T14:15:59.713Z,35.57
2018-11-05T14:18:27.264Z,38.83
2018-11-05T14:20:54.623Z,32.83
2018-11-05T14:23:22.171Z,37.63
2018-11-05T14:25:49.635Z,38.50
2018-11-05T14:28:17.119Z,38.73
2018-11-05T14:30:44.408Z,36.07
2018-11-05T14:33:11.813Z,37.60
2018-11-05T14:35:39.253Z,36.20
2018-11-05T14:38:06.707Z,33.60
2018-11-05T14:40:34.057Z,30.80
2018-11-05T14:43:01.539Z,33.17
2018-11-05T14:45:28.883Z,35.07
2018-11-05T14:47:56.333Z,34.07
2018-11-05T14:50:23.767Z,35.03
2018-11-05T14:52:51.165Z,34.90
2018-11-05T14:55:18.606Z,39.33
2018-11-05T14:57:46.003Z,37.17
2018-11-05T15:00:13.434Z,33.07
2018-11-05T15:02:40.902Z,37.20
2018-11-05T15:05:08.265Z,31.43
2018-11-05T15:07:35.762Z,33.03
2018-11-05T15:10:03.160Z,36.27
2018-11-05T15:12:30.598Z,35.87
2018-11-05T15:14:58.000Z,38.27
2018-11-05T15:17:25.408Z,36.70
2018-11-05T15:19:53.061Z,37.63
2018-11-05T15:22:20.239Z,38.23
2018-11-05T15:24:47.684Z,34.73
2018-11-05T15:27:15.111Z,35.90
2018-11-05T15:29:42.624Z,37.70
2018-11-05T15:32:10.019Z,38.80
2018-11-05T15:34:37.441Z,39.90
2018-11-05T15:37:04.864Z,34.70
2018-11-05T15:39:32.319Z,38.00
2018-11-05T15:41:59.785Z,39.37
2018-11-05T15:44:27.255Z,40.73
2018-11-05T15:46:54.664Z,43.20
2018-11-05T15:49:22.088Z,37.50
2018-11-05T15:51:49.835Z,37.63
2018-11-05T15:54:16.977Z,37.23
2018-11-05T15:56:44.333Z,38.93
2018-11-05T15:59:11.930Z,40.10
2018-11-05T16:01:39.373Z,44.87
2018-11-05T16:04:06.803Z,44.27
2018-11-05T16:06:34.225Z,45.20
2018-11-05T16:09:01.632Z,41.37
2018-11-05T16:11:29.071Z,42.73
2018-11-05T16:13:56.482Z,48.13
2018-11-05T16:16:23.912Z,44.77
2018-11-05T16:18:51.311Z,43.27
2018-11-05T16:21:18.742Z,47.80
2018-11-05T16:23:46.166Z,48.40
2018-11-05T16:26:13.588Z,46.33
2018-11-05T16:28:41.003Z,48.97
2018-11-05T16:31:08.408Z,47.63
2018-11-05T16:33:35.910Z,45.20
2018-11-05T16:36:03.339Z,44.30
2018-11-05T16:38:30.819Z,43.23
2018-11-05T16:40:58.171Z,46.90
2018-11-05T16:43:25.682Z,48.33
2018-11-05T16:45:53.185Z,45.17
2018-11-05T16:48:20.495Z,44.80
2018-11-05T16:50:47.901Z,46.80
2018-11-05T16:53:15.334Z,52.83
2018-11-05T16:55:42.756Z,49.87
2018-11-05T16:58:10.180Z,52.37
2018-11-05T17:00:37.594Z,55.00
2018-11-05T17:03:05.058Z,48.03
2018-11-05T17:05:32.434Z,53.27
2018-11-05T17:07:59.854Z,50.00
2018-11-05T17:10:27.330Z,52.93
2018-11-05T17:12:54.789Z,52.13
2018-11-05T17:15:22.205Z,48.77
2018-11-05T17:17:49.619Z,47.80
2018-11-05T17:20:17.033Z,53.47
2018-11-05T17:22:44.460Z,49.13
2018-11-05T17:25:11.872Z,49.10
2018-11-05T17:27:39.306Z,48.37
2018-11-05T17:30:06.729Z,50.20
2018-11-05T17:32:34.171Z,51.20
2018-11-05T17:35:01.568Z,54.33
2018-11-05T17:37:28.980Z,51.40
2018-11-05T17:39:56.474Z,52.87
2018-11-05T17:42:23.825Z,57.17
2018-11-05T17:44:51.231Z,52.30
2018-11-05T17:47:18.658Z,51.70
2018-11-05T17:49:46.071Z,61.63
2018-11-05T17:52:13.488Z,57.60
2018-11-05T17:54:40.889Z,50.60
2018-11-05T17:57:08.368Z,59.73
2018-11-05T17:59:35.721Z,63.23
2018-11-05T18:02:03.149Z,62.03
2018-11-05T18:04:30.606Z,67.80
2018-11-05T18:06:57.948Z,55.50
2018-11-05T18:09:25.480Z,53.50
2018-11-05T18:11:52.932Z,55.00
2018-11-05T18:14:20.261Z,56.80
2018-11-05T18:16:47.662Z,61.63
2018-11-05T18:19:15.090Z,54.77
2018-11-05T18:21:42.539Z,57.20
2018-11-05T18:24:09.941Z,57.83
2018-11-05T18:26:37.358Z,54.43
2018-11-05T18:29:04.775Z,64.50
2018-11-05T18:31:32.173Z,53.73
2018-11-05T18:33:59.600Z,59.37
2018-11-05T18:36:27.060Z,58.47
2018-11-05T18:38:54.685Z,56.40
2018-11-05T18:41:21.995Z,64.17
2018-11-05T18:43:49.404Z,58.87
2018-11-05T18:46:16.829Z,56.17
2018-11-05T18:48:44.255Z,61.77
2018-11-05T18:51:11.644Z,59.00
2018-11-05T18:53:39.081Z,64.63
2018-11-05T18:56:06.496Z,68.63
2018-11-05T18:58:33.906Z,63.83
2018-11-05T19:01:01.334Z,62.33
2018-11-05T19:03:31.400Z,61.93
2018-11-05T19:05:58.643Z,55.10
2018-11-05T19:08:26.058Z,60.33
2018-11-05T19:10:53.526Z,62.03
2018-11-05T19:13:20.960Z,59.53
2018-11-05T19:15:48.408Z,65.73
2018-11-05T19:18:15.805Z,62.30
2018-11-05T19:20:43.244Z,60.83
2018-11-05T19:23:10.713Z,60.77
2018-11-05T19:25:38.082Z,62.13
2018-11-05T19:28:05.505Z,66.37
2018-11-05T19:30:32.919Z,69.20
2018-11-05T19:33:00.343Z,82.20
2018-11-05T19:35:27.762Z,62.50
2018-11-05T19:37:55.188Z,75.03
2018-11-05T19:40:22.608Z,72.87
2018-11-05T19:42:50.239Z,67.37
2018-11-05T19:45:17.538Z,76.63
2018-11-05T19:47:44.970Z,69.30
2018-11-05T19:50:12.435Z,73.53
2018-11-05T19:52:39.808Z,77.53
2018-11-05T19:55:07.229Z,62.07
2018-11-05T19:57:34.634Z,64.27
2018-11-05T20:00:02.087Z,62.70
2018-11-05T20:02:29.527Z,57.73
2018-11-05T20:04:56.959Z,55.93
2018-11-05T20:07:24.398Z,75.07
2018-11-05T20:09:51.749Z,70.60
2018-11-05T20:12:19.156Z,77.27
2018-11-05T20:14:46.591Z,62.83
2018-11-05T20:17:14.000Z,62.13
2018-11-05T20:19:41.400Z,64.30
2018-11-05T20:22:08.869Z,65.83
2018-11-05T20:24:36.236Z,80.10
2018-11-05T20:27:03.670Z,71.63
2018-11-05T20:29:31.067Z,71.77
2018-11-05T20:31:58.534Z,82.10
2018-11-05T20:34:26.114Z,75.03
2018-11-05T20:36:53.335Z,67.47
2018-11-05T20:39:20.752Z,64.50
2018-11-05T20:41:48.192Z,62.27
2018-11-05T20:44:15.599Z,56.57
2018-11-05T20:46:43.042Z,57.00
2018-11-05T20:49:10.432Z,63.60
2018-11-05T20:51:37.856Z,68.93
2018-11-05T20:54:05.331Z,60.43
2018-11-05T20:56:32.678Z,60.90
2018-11-05T20:59:00.118Z,61.80
2018-11-05T21:01:27.509Z,62.43
2018-11-05T21:03:54.916Z,59.83
2018-11-05T21:06:22.341Z,55.60
2018-11-05T21:08:49.746Z,60.93
2018-11-05T21:11:17.151Z,54.80
2018-11-05T21:13:44.590Z,53.90
2018-11-05T21:16:12.003Z,59.60
2018-11-05T21:18:39.448Z,61.50
2018-11-05T21:21:06.901Z,47.70
2018-11-05T21:23:34.278Z,53.47
2018-11-05T21:26:02.500Z,51.00
2018-11-05T21:28:29.899Z,52.30
2018-11-05T21:30:57.336Z,51.20
2018-11-05T21:33:24.811Z,47.47
2018-11-05T21:35:52.183Z,46.17
2018-11-05T21:38:19.624Z,56.73
2018-11-05T21:40:47.162Z,54.17
2018-11-05T21:43:14.439Z,57.40
2018-11-05T21:45:41.924Z,38.87
2018-11-05T21:48:09.317Z,55.22
2018-11-05T21:50:36.726Z,46.17
2018-11-05T21:53:04.213Z,47.53
2018-11-05T21:55:31.622Z,49.67
2018-11-05T21:57:59.023Z,52.87
2018-11-05T22:00:26.442Z,44.43
2018-11-05T22:02:53.853Z,48.97
2018-11-05T22:05:21.300Z,54.93
2018-11-05T22:07:48.692Z,46.70
2018-11-05T22:10:16.103Z,50.43
2018-11-05T22:12:43.520Z,49.10
2018-11-05T22:15:10.916Z,51.03
2018-11-05T22:17:38.308Z,52.93
2018-11-05T22:20:05.829Z,47.37
2018-11-05T22:22:33.170Z,45.50
2018-11-05T22:25:00.601Z,45.67
2018-11-05T22:27:28.048Z,45.90
2018-11-05T22:29:55.410Z,45.40
2018-11-05T22:32:22.789Z,50.23
2018-11-05T22:34:50.212Z,46.40
2018-11-05T22:37:17.742Z,50.80
2018-11-05T22:39:45.129Z,47.27
2018-11-05T22:42:12.542Z,50.50
2018-11-05T22:44:39.988Z,54.47
2018-11-05T22:47:07.403Z,53.87
2018-11-05T22:49:34.798Z,47.90
2018-11-05T22:52:02.215Z,47.57
2018-11-05T22:54:29.635Z,57.27
2018-11-05T22:56:57.042Z,55.67
2018-11-05T22:59:24.480Z,48.00
2018-11-05T23:01:51.906Z,50.97
2018-11-05T23:04:19.318Z,51.87
2018-11-05T23:06:46.738Z,49.53
2018-11-05T23:09:14.194Z,46.00
2018-11-05T23:11:41.635Z,47.33
2018-11-05T23:14:09.097Z,46.00
2018-11-05T23:16:36.494Z,48.43
2018-11-05T23:19:03.897Z,44.70
2018-11-05T23:21:31.315Z,50.70
2018-11-05T23:23:58.715Z,44.03
2018-11-05T23:26:26.147Z,42.57
2018-11-05T23:28:53.583Z,46.73
2018-11-05T23:31:20.999Z,47.30
2018-11-05T23:33:48.438Z,51.20
2018-11-05T23:36:16.852Z,45.00
2018-11-05T23:38:44.226Z,43.47
2018-11-05T23:41:11.652Z,47.07
2018-11-05T23:43:39.072Z,47.77
2018-11-05T23:46:06.485Z,44.30
2018-11-05T23:48:33.899Z,43.17
2018-11-05T23:51:01.333Z,39.73
2018-11-05T23:53:28.727Z,41.87
2018-11-05T23:55:56.161Z,42.33
2018-11-05T23:58:23.557Z,43.83
